createdAt,value
2023-05-20T00:01:02.006Z,11.69
2023-05-20T00:03:29.721Z,11.60
2023-05-20T00:05:56.398Z,11.61
2023-05-20T00:08:23.059Z,11.68
2023-05-20T00:10:49.647Z,11.71
2023-05-20T00:13:16.518Z,11.79
2023-05-20T00:15:43.099Z,11.65
2023-05-20T00:18:09.582Z,11.68
2023-05-20T00:20:36.130Z,11.64
2023-05-20T00:23:02.807Z,11.70
2023-05-20T00:25:31.424Z,11.67
2023-05-20T00:27:58.025Z,11.64
2023-05-20T00:30:24.581Z,11.67
2023-05-20T00:32:51.069Z,11.69
2023-05-20T00:35:17.777Z,11.87
2023-05-20T00:37:45.559Z,11.74
2023-05-20T00:40:14.238Z,11.73
2023-05-20T00:42:42.078Z,11.67
2023-05-20T00:45:08.998Z,11.64
2023-05-20T00:47:36.789Z,11.59
2023-05-20T00:50:04.108Z,11.50
2023-05-20T00:52:31.982Z,11.57
2023-05-20T00:54:59.656Z,11.49
2023-05-20T00:57:26.359Z,11.36
2023-05-20T00:59:53.375Z,11.31
2023-05-20T01:02:20.013Z,11.32
2023-05-20T01:04:47.372Z,11.20
2023-05-20T01:07:17.470Z,11.22
2023-05-20T01:09:44.724Z,11.10
2023-05-20T01:12:23.545Z,11.01
2023-05-20T01:14:56.761Z,10.85
2023-05-20T01:17:27.186Z,10.84
2023-05-20T01:19:56.493Z,10.79
2023-05-20T01:22:27.485Z,10.88
2023-05-20T01:24:54.125Z,10.92
2023-05-20T01:27:22.539Z,10.83
2023-05-20T01:29:53.140Z,10.80
2023-05-20T01:32:27.832Z,10.72
2023-05-20T01:34:56.223Z,10.66
2023-05-20T01:37:25.184Z,10.73
2023-05-20T01:39:53.438Z,10.68
2023-05-20T01:42:21.137Z,10.59
2023-05-20T01:44:48.356Z,10.59
2023-05-20T01:47:14.926Z,10.62
2023-05-20T01:49:41.933Z,10.63
2023-05-20T01:52:08.480Z,10.48
2023-05-20T01:54:35.804Z,10.57
2023-05-20T01:57:02.934Z,10.61
2023-05-20T01:59:29.484Z,10.38
2023-05-20T02:01:56.000Z,10.40
2023-05-20T02:04:22.678Z,10.36
2023-05-20T02:06:49.272Z,10.33
2023-05-20T02:09:15.944Z,10.25
2023-05-20T02:11:42.469Z,10.21
2023-05-20T02:14:09.008Z,10.19
2023-05-20T02:16:35.544Z,10.18
2023-05-20T02:19:02.128Z,10.18
2023-05-20T02:21:28.744Z,10.09
2023-05-20T02:23:55.211Z,10.09
2023-05-20T02:26:22.567Z,9.99
2023-05-20T02:28:51.065Z,9.89
2023-05-20T02:31:18.083Z,9.97
2023-05-20T02:33:45.601Z,9.86
2023-05-20T02:36:12.440Z,9.93
2023-05-20T02:38:39.112Z,9.91
2023-05-20T02:41:05.581Z,9.90
2023-05-20T02:43:33.140Z,9.81
2023-05-20T02:46:00.979Z,9.79
2023-05-20T02:48:27.533Z,9.80
2023-05-20T02:50:54.263Z,9.72
2023-05-20T02:53:20.992Z,9.72
2023-05-20T02:55:48.703Z,9.63
2023-05-20T02:58:15.326Z,9.70
2023-05-20T03:00:41.987Z,9.64
2023-05-20T03:03:10.263Z,9.58
2023-05-20T03:05:37.607Z,9.46
2023-05-20T03:08:09.763Z,9.46
2023-05-20T03:10:39.664Z,9.44
2023-05-20T03:13:11.404Z,9.26
2023-05-20T03:15:38.975Z,9.33
2023-05-20T03:18:06.102Z,9.33
2023-05-20T03:20:32.786Z,9.25
2023-05-20T03:22:59.381Z,9.26
2023-05-20T03:25:26.257Z,9.24
2023-05-20T03:27:52.840Z,9.16
2023-05-20T03:30:19.814Z,9.21
2023-05-20T03:32:47.735Z,9.11
2023-05-20T03:35:14.517Z,9.14
2023-05-20T03:37:41.940Z,9.13
2023-05-20T03:40:12.904Z,9.11
2023-05-20T03:42:40.531Z,9.02
2023-05-20T03:45:07.621Z,8.98
2023-05-20T03:47:40.626Z,9.00
2023-05-20T03:50:07.801Z,9.00
2023-05-20T03:52:37.102Z,8.90
2023-05-20T03:55:04.277Z,8.90
2023-05-20T03:57:32.127Z,8.89
2023-05-20T03:59:58.591Z,8.99
2023-05-20T04:02:25.687Z,8.91
2023-05-20T04:04:52.850Z,8.90
2023-05-20T04:07:19.649Z,8.91
2023-05-20T04:09:46.792Z,8.88
2023-05-20T04:12:13.862Z,8.87
2023-05-20T04:14:42.165Z,8.95
2023-05-20T04:17:09.554Z,8.92
2023-05-20T04:19:38.137Z,8.89
2023-05-20T04:22:04.834Z,8.91
2023-05-20T04:24:31.371Z,8.88
2023-05-20T04:26:57.837Z,8.95
2023-05-20T04:29:25.487Z,8.90
2023-05-20T04:31:52.222Z,8.94
2023-05-20T04:34:20.325Z,8.93
2023-05-20T04:36:49.169Z,9.00
2023-05-20T04:39:15.720Z,9.06
2023-05-20T04:41:42.329Z,9.10
2023-05-20T04:44:09.454Z,9.10
2023-05-20T04:46:36.098Z,9.12
2023-05-20T04:49:04.473Z,9.18
2023-05-20T04:51:30.973Z,9.18
2023-05-20T04:53:58.942Z,9.21
2023-05-20T04:56:28.312Z,9.30
2023-05-20T04:58:56.065Z,9.42
2023-05-20T05:01:22.631Z,9.50
2023-05-20T05:03:49.241Z,9.59
2023-05-20T05:06:15.730Z,9.66
2023-05-20T05:08:42.391Z,9.73
2023-05-20T05:11:09.181Z,9.75
2023-05-20T05:13:35.837Z,9.81
2023-05-20T05:16:03.394Z,9.85
2023-05-20T05:18:31.560Z,10.00
2023-05-20T05:21:02.882Z,10.06
2023-05-20T05:23:29.588Z,10.16
2023-05-20T05:25:56.524Z,10.19
2023-05-20T05:28:23.697Z,10.32
2023-05-20T05:30:50.549Z,10.45
2023-05-20T05:33:17.540Z,10.55
2023-05-20T05:35:44.574Z,10.66
2023-05-20T05:38:11.160Z,10.65
2023-05-20T05:40:37.648Z,10.83
2023-05-20T05:43:04.537Z,10.96
2023-05-20T05:45:31.231Z,11.02
2023-05-20T05:47:58.632Z,11.22
2023-05-20T05:50:25.974Z,11.31
2023-05-20T05:52:53.454Z,11.33
2023-05-20T05:55:20.889Z,11.52
2023-05-20T05:57:47.470Z,11.60
2023-05-20T06:00:17.054Z,11.74
2023-05-20T06:02:48.124Z,11.96
2023-05-20T06:05:29.647Z,11.98
2023-05-20T06:07:56.743Z,12.03
2023-05-20T06:10:23.764Z,12.13
2023-05-20T06:12:50.353Z,12.23
2023-05-20T06:15:17.777Z,12.22
2023-05-20T06:17:45.279Z,12.20
2023-05-20T06:20:13.128Z,12.25
2023-05-20T06:22:39.802Z,12.28
2023-05-20T06:25:06.841Z,12.25
2023-05-20T06:27:35.384Z,12.44
2023-05-20T06:30:02.113Z,12.64
2023-05-20T06:32:29.350Z,12.63
2023-05-20T06:34:56.971Z,12.70
2023-05-20T06:37:24.480Z,12.80
2023-05-20T06:39:53.748Z,12.92
2023-05-20T06:42:21.331Z,12.90
2023-05-20T06:45:02.687Z,12.92
2023-05-20T06:47:36.195Z,13.04
2023-05-20T06:50:03.315Z,13.07
2023-05-20T06:52:30.958Z,13.24
2023-05-20T06:54:57.437Z,13.28
2023-05-20T06:57:24.135Z,13.52
2023-05-20T06:59:50.711Z,13.61
2023-05-20T07:02:18.521Z,13.65
2023-05-20T07:04:45.442Z,13.82
2023-05-20T07:07:12.009Z,13.85
2023-05-20T07:09:38.769Z,13.85
2023-05-20T07:12:07.179Z,14.11
2023-05-20T07:14:33.632Z,14.11
2023-05-20T07:17:01.984Z,14.23
2023-05-20T07:19:28.871Z,14.40
2023-05-20T07:21:55.380Z,14.56
2023-05-20T07:24:24.416Z,14.50
2023-05-20T07:26:50.991Z,14.49
2023-05-20T07:29:17.495Z,14.64
2023-05-20T07:31:44.430Z,14.81
2023-05-20T07:34:11.021Z,14.85
2023-05-20T07:36:38.211Z,14.99
2023-05-20T07:39:09.530Z,15.13
2023-05-20T07:41:40.019Z,15.03
2023-05-20T07:44:08.612Z,15.39
2023-05-20T07:46:38.289Z,15.71
2023-05-20T07:49:05.997Z,15.74
2023-05-20T07:51:33.651Z,15.93
2023-05-20T07:54:00.162Z,16.18
2023-05-20T07:56:28.242Z,15.81
2023-05-20T07:58:58.150Z,15.68
2023-05-20T08:01:27.977Z,15.67
2023-05-20T08:03:55.415Z,15.75
2023-05-20T08:06:29.469Z,15.91
2023-05-20T08:08:57.121Z,16.21
2023-05-20T08:11:29.229Z,16.33
2023-05-20T08:13:56.990Z,16.29
2023-05-20T08:16:26.277Z,16.42
2023-05-20T08:18:52.838Z,16.10
2023-05-20T08:21:21.623Z,16.34
2023-05-20T08:23:48.307Z,16.34
2023-05-20T08:26:14.771Z,16.23
2023-05-20T08:28:42.576Z,16.43
2023-05-20T08:31:09.727Z,16.54
2023-05-20T08:33:36.702Z,16.30
2023-05-20T08:36:03.389Z,16.40
2023-05-20T08:38:29.932Z,16.60
2023-05-20T08:40:57.180Z,16.64
2023-05-20T08:43:25.060Z,16.54
2023-05-20T08:45:52.721Z,16.63
2023-05-20T08:48:22.991Z,16.55
2023-05-20T08:50:53.707Z,16.89
2023-05-20T08:53:23.644Z,16.93
2023-05-20T08:55:55.395Z,16.78
2023-05-20T08:58:23.354Z,16.39
2023-05-20T09:00:51.136Z,16.33
2023-05-20T09:03:18.508Z,16.40
2023-05-20T09:05:45.185Z,16.48
2023-05-20T09:08:12.247Z,16.68
2023-05-20T09:10:40.571Z,16.85
2023-05-20T09:13:07.994Z,16.72
2023-05-20T09:15:35.638Z,16.74
2023-05-20T09:18:04.285Z,16.74
2023-05-20T09:20:34.017Z,16.62
2023-05-20T09:23:02.936Z,16.67
2023-05-20T09:25:29.603Z,16.84
2023-05-20T09:27:56.769Z,17.14
2023-05-20T09:30:24.283Z,16.94
2023-05-20T09:32:58.711Z,16.68
2023-05-20T09:35:26.538Z,16.82
2023-05-20T09:37:57.219Z,17.01
2023-05-20T09:40:28.219Z,16.88
2023-05-20T09:43:02.658Z,17.01
2023-05-20T09:45:29.608Z,16.88
2023-05-20T09:47:56.846Z,16.95
2023-05-20T09:50:27.312Z,16.97
2023-05-20T09:52:55.194Z,16.98
2023-05-20T09:55:24.266Z,16.96
2023-05-20T09:57:51.777Z,16.84
2023-05-20T10:00:19.543Z,16.83
2023-05-20T10:02:53.403Z,16.89
2023-05-20T10:05:27.059Z,16.87
2023-05-20T10:08:18.851Z,16.74
2023-05-20T10:10:51.180Z,16.79
2023-05-20T10:13:24.227Z,16.72
2023-05-20T10:15:58.862Z,16.56
2023-05-20T10:19:06.762Z,16.52
2023-05-20T10:21:33.370Z,16.42
2023-05-20T10:24:10.503Z,16.35
2023-05-20T10:26:42.601Z,16.36
2023-05-20T10:29:16.953Z,16.41
2023-05-20T10:31:46.773Z,16.27
2023-05-20T10:34:18.215Z,16.19
2023-05-20T10:36:48.324Z,16.30
2023-05-20T10:39:18.878Z,16.40
2023-05-20T10:41:45.712Z,16.38
2023-05-20T10:44:12.309Z,16.23
2023-05-20T10:46:54.398Z,16.30
2023-05-20T10:49:34.856Z,16.14
2023-05-20T10:52:01.812Z,15.93
2023-05-20T10:54:29.384Z,15.92
2023-05-20T10:56:55.856Z,16.22
2023-05-20T10:59:22.849Z,16.27
2023-05-20T11:01:49.645Z,16.39
2023-05-20T11:04:19.845Z,16.25
2023-05-20T11:06:57.023Z,16.24
2023-05-20T11:09:23.892Z,16.14
2023-05-20T11:11:52.416Z,16.06
2023-05-20T11:14:21.599Z,15.99
2023-05-20T11:16:53.159Z,15.67
2023-05-20T11:19:20.252Z,15.69
2023-05-20T11:21:47.694Z,15.92
2023-05-20T11:24:24.264Z,16.23
2023-05-20T11:26:50.782Z,16.53
2023-05-20T11:29:17.838Z,17.00
2023-05-20T11:31:44.530Z,17.21
2023-05-20T11:34:11.164Z,17.43
2023-05-20T11:36:43.911Z,17.18
2023-05-20T11:39:13.541Z,17.41
2023-05-20T11:41:40.012Z,17.53
2023-05-20T11:44:11.096Z,17.40
2023-05-20T11:46:47.405Z,17.81
2023-05-20T11:49:15.134Z,17.74
2023-05-20T11:51:43.276Z,17.38
2023-05-20T11:54:10.570Z,17.58
2023-05-20T11:56:38.452Z,17.57
2023-05-20T11:59:06.519Z,17.75
2023-05-20T12:01:37.614Z,17.78
2023-05-20T12:04:05.597Z,18.02
2023-05-20T12:06:32.669Z,17.34
2023-05-20T12:09:06.719Z,17.28
2023-05-20T12:11:35.656Z,16.97
2023-05-20T12:14:03.859Z,17.05
2023-05-20T12:16:31.978Z,17.06
2023-05-20T12:18:58.871Z,17.41
2023-05-20T12:21:25.477Z,17.34
2023-05-20T12:23:57.409Z,17.50
2023-05-20T12:26:25.776Z,17.64
2023-05-20T12:28:52.542Z,17.55
2023-05-20T12:31:19.710Z,17.81
2023-05-20T12:33:46.825Z,18.11
2023-05-20T12:36:14.498Z,17.85
2023-05-20T12:38:41.260Z,18.13
2023-05-20T12:41:08.085Z,18.01
2023-05-20T12:43:37.356Z,18.18
2023-05-20T12:46:04.194Z,18.33
2023-05-20T12:48:30.860Z,18.40
2023-05-20T12:50:57.379Z,18.52
2023-05-20T12:53:24.111Z,18.45
2023-05-20T12:55:50.657Z,18.31
2023-05-20T12:58:17.805Z,18.08
2023-05-20T13:00:44.766Z,18.02
2023-05-20T13:03:11.766Z,18.03
2023-05-20T13:05:39.049Z,17.74
2023-05-20T13:08:05.832Z,17.99
2023-05-20T13:10:33.384Z,18.21
2023-05-20T13:13:00.042Z,18.31
2023-05-20T13:15:27.264Z,18.36
2023-05-20T13:17:54.382Z,18.09
2023-05-20T13:20:21.432Z,17.77
2023-05-20T13:22:48.770Z,17.55
2023-05-20T13:25:15.253Z,17.64
2023-05-20T13:27:41.708Z,17.75
2023-05-20T13:30:08.562Z,17.64
2023-05-20T13:32:35.196Z,17.77
2023-05-20T13:35:02.923Z,17.63
2023-05-20T13:37:29.992Z,17.95
2023-05-20T13:39:56.550Z,18.06
2023-05-20T13:42:23.303Z,17.85
2023-05-20T13:44:49.920Z,17.77
2023-05-20T13:47:16.516Z,17.57
2023-05-20T13:49:43.476Z,17.56
2023-05-20T13:52:09.902Z,17.64
2023-05-20T13:54:36.455Z,17.71
2023-05-20T13:57:07.832Z,17.82
2023-05-20T13:59:35.070Z,17.71
2023-05-20T14:02:02.134Z,17.47
2023-05-20T14:04:29.045Z,17.51
2023-05-20T14:06:55.748Z,17.69
2023-05-20T14:09:22.293Z,17.82
2023-05-20T14:11:48.988Z,17.75
2023-05-20T14:14:15.434Z,17.72
2023-05-20T14:16:42.065Z,17.68
2023-05-20T14:19:09.249Z,17.71
2023-05-20T14:21:35.828Z,17.72
2023-05-20T14:24:02.364Z,17.88
2023-05-20T14:26:28.837Z,17.84
2023-05-20T14:28:55.457Z,17.87
2023-05-20T14:31:21.910Z,18.08
2023-05-20T14:33:49.284Z,17.98
2023-05-20T14:36:15.965Z,17.95
2023-05-20T14:38:42.661Z,17.91
2023-05-20T14:41:09.746Z,17.96
2023-05-20T14:43:36.693Z,17.87
2023-05-20T14:46:03.443Z,17.80
2023-05-20T14:48:29.904Z,17.78
2023-05-20T14:50:56.328Z,17.67
2023-05-20T14:53:23.254Z,17.54
2023-05-20T14:55:49.876Z,17.73
2023-05-20T14:58:16.586Z,17.83
2023-05-20T15:00:43.686Z,17.96
2023-05-20T15:03:10.300Z,18.02
2023-05-20T15:05:36.996Z,17.99
2023-05-20T15:08:03.758Z,17.85
2023-05-20T15:10:30.635Z,17.77
2023-05-20T15:12:57.096Z,17.63
2023-05-20T15:15:23.783Z,17.59
2023-05-20T15:17:50.629Z,17.75
2023-05-20T15:20:17.664Z,17.81
2023-05-20T15:22:48.259Z,17.89
2023-05-20T15:25:15.084Z,17.74
2023-05-20T15:27:42.342Z,17.81
2023-05-20T15:30:09.853Z,17.95
2023-05-20T15:32:36.497Z,17.87
2023-05-20T15:35:04.210Z,17.65
2023-05-20T15:37:30.718Z,17.56
2023-05-20T15:39:57.183Z,17.43
2023-05-20T15:42:23.721Z,17.46
2023-05-20T15:44:50.286Z,17.48
2023-05-20T15:47:16.902Z,17.48
2023-05-20T15:49:44.176Z,17.46
2023-05-20T15:52:10.764Z,17.54
2023-05-20T15:54:37.238Z,17.66
2023-05-20T15:57:03.908Z,17.51
2023-05-20T15:59:30.371Z,17.51
2023-05-20T16:01:56.937Z,17.34
2023-05-20T16:04:23.499Z,17.20
2023-05-20T16:06:50.668Z,17.02
2023-05-20T16:09:17.461Z,17.01
2023-05-20T16:11:44.416Z,17.07
2023-05-20T16:14:11.091Z,17.12
2023-05-20T16:16:37.677Z,17.04
2023-05-20T16:19:04.269Z,17.11
2023-05-20T16:21:31.281Z,17.09
2023-05-20T16:23:57.742Z,17.03
2023-05-20T16:26:25.002Z,16.98
2023-05-20T16:28:51.712Z,17.01
2023-05-20T16:31:18.304Z,16.93
2023-05-20T16:33:44.874Z,16.90
2023-05-20T16:36:12.084Z,16.72
2023-05-20T16:38:38.921Z,16.74
2023-05-20T16:41:05.467Z,16.77
2023-05-20T16:43:31.888Z,16.84
2023-05-20T16:45:58.524Z,16.87
2023-05-20T16:48:25.586Z,16.87
2023-05-20T16:50:52.013Z,16.84
2023-05-20T16:53:18.846Z,16.69
2023-05-20T16:55:46.026Z,16.77
2023-05-20T16:58:12.610Z,16.77
2023-05-20T17:00:39.159Z,16.73
2023-05-20T17:03:05.634Z,16.80
2023-05-20T17:05:32.134Z,16.80
2023-05-20T17:08:00.325Z,16.77
2023-05-20T17:10:28.762Z,16.72
2023-05-20T17:12:55.582Z,16.75
2023-05-20T17:15:23.311Z,16.74
2023-05-20T17:17:50.564Z,16.60
2023-05-20T17:20:17.902Z,16.66
2023-05-20T17:22:44.769Z,16.70
2023-05-20T17:25:11.370Z,16.64
2023-05-20T17:27:38.285Z,16.62
2023-05-20T17:30:05.494Z,16.60
2023-05-20T17:32:31.933Z,16.59
2023-05-20T17:34:58.561Z,16.59
2023-05-20T17:37:25.191Z,16.54
2023-05-20T17:39:51.896Z,16.57
2023-05-20T17:42:18.637Z,16.66
2023-05-20T17:44:45.955Z,16.66
2023-05-20T17:47:12.520Z,16.63
2023-05-20T17:49:39.070Z,16.51
2023-05-20T17:52:05.990Z,16.35
2023-05-20T17:54:32.485Z,16.52
2023-05-20T17:56:59.055Z,16.48
2023-05-20T17:59:25.832Z,16.49
2023-05-20T18:01:52.867Z,16.47
2023-05-20T18:04:21.305Z,16.40
2023-05-20T18:06:48.014Z,16.39
2023-05-20T18:09:14.520Z,16.30
2023-05-20T18:11:40.992Z,16.43
2023-05-20T18:14:10.338Z,16.33
2023-05-20T18:16:39.568Z,16.33
2023-05-20T18:19:06.374Z,16.40
2023-05-20T18:21:32.812Z,16.43
2023-05-20T18:23:59.289Z,16.35
2023-05-20T18:26:26.467Z,16.33
2023-05-20T18:28:53.034Z,16.33
2023-05-20T18:31:19.810Z,16.41
2023-05-20T18:33:46.652Z,16.40
2023-05-20T18:36:13.323Z,16.41
2023-05-20T18:38:41.479Z,16.33
2023-05-20T18:41:08.737Z,16.23
2023-05-20T18:43:35.516Z,16.25
2023-05-20T18:46:02.357Z,16.20
2023-05-20T18:48:29.022Z,16.32
2023-05-20T18:50:56.332Z,16.32
2023-05-20T18:53:23.808Z,16.28
2023-05-20T18:55:55.763Z,16.22
2023-05-20T18:58:22.343Z,16.22
2023-05-20T19:00:49.091Z,16.18
2023-05-20T19:03:15.818Z,16.22
2023-05-20T19:05:42.357Z,16.17
2023-05-20T19:08:09.236Z,16.11
2023-05-20T19:10:35.698Z,16.04
2023-05-20T19:13:02.146Z,16.14
2023-05-20T19:15:30.142Z,16.08
2023-05-20T19:17:56.689Z,16.02
2023-05-20T19:20:23.182Z,16.01
2023-05-20T19:22:49.677Z,16.00
2023-05-20T19:25:16.340Z,15.92
2023-05-20T19:27:42.845Z,15.96
2023-05-20T19:30:11.018Z,15.93
2023-05-20T19:32:38.713Z,15.98
2023-05-20T19:35:06.125Z,15.96
2023-05-20T19:37:32.760Z,15.91
2023-05-20T19:39:59.422Z,15.91
2023-05-20T19:42:25.856Z,15.92
2023-05-20T19:44:53.522Z,15.79
2023-05-20T19:47:20.092Z,15.79
2023-05-20T19:49:46.848Z,15.80
2023-05-20T19:52:13.377Z,15.87
2023-05-20T19:54:41.639Z,15.84
2023-05-20T19:57:08.079Z,15.81
2023-05-20T19:59:36.261Z,15.80
2023-05-20T20:02:03.878Z,15.67
2023-05-20T20:04:30.546Z,15.71
2023-05-20T20:06:57.048Z,15.65
2023-05-20T20:09:23.490Z,15.60
2023-05-20T20:11:50.098Z,15.65
2023-05-20T20:14:16.577Z,15.58
2023-05-20T20:16:46.567Z,15.59
2023-05-20T20:19:13.221Z,15.53
2023-05-20T20:21:40.307Z,15.51
2023-05-20T20:24:06.813Z,15.57
2023-05-20T20:26:34.524Z,15.54
2023-05-20T20:29:00.984Z,15.48
2023-05-20T20:31:27.553Z,15.40
2023-05-20T20:33:54.123Z,15.46
2023-05-20T20:36:20.793Z,15.33
2023-05-20T20:38:47.274Z,15.31
2023-05-20T20:41:16.178Z,15.29
2023-05-20T20:43:45.914Z,15.23
2023-05-20T20:46:15.648Z,15.19
2023-05-20T20:48:45.855Z,15.16
2023-05-20T20:51:13.597Z,15.09
2023-05-20T20:53:43.430Z,15.02
2023-05-20T20:56:10.048Z,14.96
2023-05-20T20:58:37.467Z,14.93
2023-05-20T21:01:05.694Z,14.86
2023-05-20T21:03:39.943Z,14.74
2023-05-20T21:06:07.467Z,14.69
2023-05-20T21:08:33.938Z,14.58
2023-05-20T21:11:00.444Z,14.55
2023-05-20T21:13:28.584Z,14.58
2023-05-20T21:15:55.271Z,14.51
2023-05-20T21:18:22.846Z,14.46
2023-05-20T21:20:53.711Z,14.35
2023-05-20T21:23:21.229Z,14.46
2023-05-20T21:25:48.721Z,14.36
2023-05-20T21:28:16.022Z,14.33
2023-05-20T21:30:42.524Z,14.33
2023-05-20T21:33:09.048Z,14.19
2023-05-20T21:35:35.709Z,14.28
2023-05-20T21:38:02.812Z,14.25
2023-05-20T21:40:29.265Z,14.26
2023-05-20T21:42:55.794Z,14.22
2023-05-20T21:45:22.203Z,14.27
2023-05-20T21:47:48.824Z,14.28
2023-05-20T21:50:15.533Z,14.32
2023-05-20T21:52:42.014Z,14.32
2023-05-20T21:55:09.729Z,14.33
2023-05-20T21:57:36.538Z,14.19
2023-05-20T22:00:15.117Z,14.27
2023-05-20T22:02:45.977Z,14.24
2023-05-20T22:05:12.875Z,14.30
2023-05-20T22:07:43.078Z,14.26
2023-05-20T22:10:10.701Z,14.20
2023-05-20T22:12:38.035Z,14.16
2023-05-20T22:15:05.659Z,14.22
2023-05-20T22:17:39.366Z,14.01
2023-05-20T22:20:10.459Z,14.05
2023-05-20T22:22:39.038Z,14.11
2023-05-20T22:25:06.667Z,13.95
2023-05-20T22:27:34.756Z,14.10
2023-05-20T22:30:01.639Z,14.02
2023-05-20T22:32:28.046Z,14.00
2023-05-20T22:34:58.379Z,13.91
2023-05-20T22:37:26.647Z,14.02
2023-05-20T22:39:53.085Z,13.94
2023-05-20T22:42:19.588Z,13.83
2023-05-20T22:44:46.166Z,13.83
2023-05-20T22:47:12.629Z,13.77
2023-05-20T22:49:40.375Z,13.71
2023-05-20T22:52:07.703Z,13.69
2023-05-20T22:54:34.822Z,13.70
2023-05-20T22:57:01.348Z,13.61
2023-05-20T22:59:31.054Z,13.53
2023-05-20T23:01:57.634Z,13.59
2023-05-20T23:04:24.178Z,13.66
2023-05-20T23:06:53.721Z,13.56
2023-05-20T23:09:21.109Z,13.59
2023-05-20T23:11:47.776Z,13.58
2023-05-20T23:14:14.528Z,13.52
2023-05-20T23:16:41.984Z,13.45
2023-05-20T23:19:08.854Z,13.43
2023-05-20T23:21:35.405Z,13.49
2023-05-20T23:24:01.853Z,13.46
2023-05-20T23:26:28.786Z,13.42
2023-05-20T23:28:55.344Z,13.43
2023-05-20T23:31:22.541Z,13.40
2023-05-20T23:33:49.654Z,13.29
2023-05-20T23:36:17.066Z,13.27
2023-05-20T23:38:43.754Z,13.29
2023-05-20T23:41:10.252Z,13.32
2023-05-20T23:43:36.859Z,13.32
2023-05-20T23:46:03.356Z,13.23
2023-05-20T23:48:29.829Z,13.17
2023-05-20T23:50:56.295Z,13.11
2023-05-20T23:53:22.764Z,13.18
2023-05-20T23:55:49.715Z,13.13
2023-05-20T23:58:16.749Z,13.06
